Time;durP1;ratioP1;P1;durP2;ratioP2;P2;SDS_P1;SDS_P2;PMS_P1;PMS_P2;Temp;Humidity;BMP_temperature;BMP_pressure;BME280_temperature;BME280_humidity;BME280_pressure;Samples;Min_cycle;Max_cycle;Signal;HPM_P1;HPM_P2
2023/08/10 00:01:33;;;;;;;;;;;;;;;;;;5037616;28;19919;-83
2023/08/10 00:03:58;;;;;;;;;;;;;;;;;;5032937;28;20440;-83
2023/08/10 00:06:23;;;;;;;;;;;;;;;;;;5041231;28;19927;-83
2023/08/10 00:08:50;;;;;;;0.20;0.20;;;;;;;;;;5033438;28;19920;-83
2023/08/10 00:11:15;;;;;;;0.20;0.20;;;;;;;-145.28;100.00;87214.63;5029896;28;20034;-83
2023/08/10 00:13:40;;;;;;;;;;;;;;;;;;5032946;28;20037;-83
2023/08/10 00:16:05;;;;;;;0.20;0.20;;;;;;;;;;5030819;28;19913;-83
2023/08/10 00:18:30;;;;;;;0.20;0.20;;;;;;;;;;5031874;28;20029;-83
2023/08/10 00:20:56;;;;;;;0.20;0.20;;;;;;;;;;5030377;28;20269;-84
2023/08/10 00:23:21;;;;;;;0.20;0.20;;;;;;;;;;5030345;28;20038;-83
2023/08/10 00:25:47;;;;;;;0.20;0.20;;;;;;;;;;5026935;28;20043;-84
2023/08/10 00:28:12;;;;;;;0.20;0.20;;;;;;;;;;5026298;28;20072;-83
2023/08/10 00:30:40;;;;;;;0.20;0.20;;;;;;;;;;5032962;28;20531;-84
2023/08/10 00:33:06;;;;;;;0.20;0.20;;;;;;;;;;5027323;28;20064;-83
2023/08/10 00:35:32;;;;;;;0.20;0.20;;;;;;;;;;5034738;28;20033;-84
2023/08/10 00:37:57;;;;;;;0.20;0.20;;;;;;;;;;5024696;28;20044;-86
2023/08/10 00:40:23;;;;;;;0.20;0.20;;;;;;;;;;5030017;28;20072;-85
2023/08/10 00:42:48;;;;;;;;;;;;;;;;;;5035061;28;20049;-84
2023/08/10 00:45:13;;;;;;;0.20;0.20;;;;;;;;;;5025956;28;19936;-85
2023/08/10 00:47:39;;;;;;;0.10;0.10;;;;;;;;;;5035995;28;20773;-84
2023/08/10 00:50:04;;;;;;;;;;;;;;;;;;5038470;28;20060;-84
2023/08/10 00:52:29;;;;;;;;;;;;;;;;;;5035731;28;19982;-84
2023/08/10 00:54:54;;;;;;;0.20;0.20;;;;;;;;;;5035612;28;19952;-84
2023/08/10 00:57:20;;;;;;;0.20;0.20;;;;;;;;;;5034099;28;20097;-85
2023/08/10 00:59:45;;;;;;;0.20;0.20;;;;;;;;;;5035233;28;20307;-84
2023/08/10 01:02:10;;;;;;;0.20;0.20;;;;;;;;;;5033631;28;20124;-84
2023/08/10 01:04:35;;;;;;;0.20;0.20;;;;;;;;;;5035939;28;20507;-84
2023/08/10 01:07:10;;;;;;;0.20;0.20;;;;;;;;;;5034161;28;20931;-84
2023/08/10 01:09:52;;;;;;;0.20;0.20;;;;;;;;;;5034880;28;20045;-84
2023/08/10 01:12:19;;;;;;;0.20;0.20;;;;;;;;;;5033839;28;20056;-83
2023/08/10 01:14:51;;;;;;;0.20;0.20;;;;;;;;;;5034126;28;20018;-84
2023/08/10 01:17:26;;;;;;;0.20;0.20;;;;;;;;;;5034499;28;20107;-84
2023/08/10 01:19:52;;;;;;;;;;;;;;;;;;5034603;28;20041;-84
2023/08/10 01:22:21;;;;;;;0.20;0.20;;;;;;;;;;5033589;28;19960;-84
2023/08/10 01:24:59;;;;;;;0.20;0.20;;;;;;;;;;5054523;28;20038;-84
2023/08/10 01:27:24;;;;;;;0.20;0.20;;;;;;;;;;5038611;28;20693;-84
2023/08/10 01:29:49;;;;;;;0.20;0.20;;;;;;;;;;5036433;28;20048;-83
2023/08/10 01:32:15;;;;;;;0.20;0.20;;;;;;;;;;5035852;28;20056;-84
2023/08/10 01:34:40;;;;;;;0.20;0.20;;;;;;;;;;5036210;28;20056;-84
2023/08/10 01:37:05;;;;;;;0.20;0.20;;;;;;;;;;5035240;28;20045;-84
2023/08/10 01:39:32;;;;;;;0.20;0.20;;;;;;;;;;5037422;28;20124;-84
2023/08/10 01:41:57;;;;;;;0.20;0.20;;;;;;;;;;5038541;28;20283;-85
2023/08/10 01:44:22;;;;;;;0.20;0.20;;;;;;;;;;5039400;28;20391;-84
2023/08/10 01:46:49;;;;;;;0.20;0.20;;;;;;;;;;5038056;28;20271;-84
2023/08/10 01:49:14;;;;;;;0.15;0.15;;;;;;;;;;5031203;28;20034;-84
2023/08/10 01:51:40;;;;;;;0.20;0.20;;;;;;;;;;5038998;28;20032;-85
2023/08/10 01:54:06;;;;;;;0.20;0.20;;;;;;;;;;5036847;28;20033;-84
2023/08/10 01:56:32;;;;;;;0.10;0.10;;;;;;;;;;5047581;28;20283;-85
2023/08/10 01:58:57;;;;;;;0.20;0.20;;;;;;;;;;5039512;28;20030;-84
2023/08/10 02:01:22;;;;;;;0.20;0.20;;;;;;;;;;5037823;28;20513;-84
2023/08/10 02:03:47;;;;;;;0.20;0.20;;;;;;;;;;5037121;28;20048;-83
2023/08/10 02:06:13;;;;;;;0.20;0.20;;;;;;;;;;5035091;28;20304;-84
2023/08/10 02:08:38;;;;;;;0.20;0.20;;;;;;;;;;5034302;28;20565;-84
2023/08/10 02:11:03;;;;;;;0.10;0.10;;;;;;;;;;5034155;28;20463;-84
2023/08/10 02:13:28;;;;;;;0.20;0.20;;;;;;;;;;5035500;28;20132;-85
2023/08/10 02:15:54;;;;;;;0.20;0.20;;;;;;;-145.28;100.00;87214.63;5036213;28;20064;-83
2023/08/10 02:18:19;;;;;;;0.20;0.20;;;;;;;;;;5045543;28;20284;-83
2023/08/10 02:20:44;;;;;;;0.20;0.20;;;;;;;;;;5034253;28;20040;-84
2023/08/10 02:23:09;;;;;;;0.20;0.20;;;;;;;;;;5034422;28;20774;-84
2023/08/10 02:25:34;;;;;;;0.20;0.20;;;;;;;;;;5033415;28;20037;-83
2023/08/10 02:28:00;;;;;;;0.20;0.20;;;;;;;;;;5033394;28;20537;-84
2023/08/10 02:30:25;;;;;;;0.20;0.20;;;;;;;;;;5034124;28;20121;-84
2023/08/10 02:32:50;;;;;;;0.20;0.20;;;;;;;;;;5033496;28;20045;-84
2023/08/10 02:35:15;;;;;;;0.10;0.10;;;;;;;;;;5034203;28;20030;-84
2023/08/10 02:37:41;;;;;;;0.17;0.17;;;;;;;;;;5035095;28;20117;-84
2023/08/10 02:40:12;;;;;;;0.20;0.20;;;;;;;;;;5035344;28;20048;-83
2023/08/10 02:42:38;;;;;;;0.20;0.20;;;;;;;;;;5037903;28;20093;-84
2023/08/10 02:45:04;;;;;;;0.20;0.20;;;;;;;;;;5037982;28;20033;-84
2023/08/10 02:47:29;;;;;;;0.10;0.10;;;;;;;;;;5035284;28;20080;-84
2023/08/10 02:49:54;;;;;;;0.20;0.20;;;;;;;;;;5036945;28;20037;-84
2023/08/10 02:52:19;;;;;;;0.20;0.20;;;;;;;;;;5034738;28;20045;-83
2023/08/10 02:54:44;;;;;;;0.20;0.20;;;;;;;;;;5034228;28;20037;-83
2023/08/10 02:57:10;;;;;;;0.20;0.20;;;;;;;;;;5035480;28;20037;-84
2023/08/10 02:59:35;;;;;;;0.10;0.10;;;;;;;;;;5034221;28;20057;-83
2023/08/10 03:02:00;;;;;;;0.20;0.20;;;;;;;;;;5035267;28;20065;-86
2023/08/10 03:04:25;;;;;;;;;;;;;;;;;;5034464;28;20268;-83
2023/08/10 03:06:51;;;;;;;0.20;0.20;;;;;;;;;;5035913;28;19917;-85
2023/08/10 03:09:16;;;;;;;0.20;0.20;;;;;;;;;;5035224;28;20038;-84
2023/08/10 03:11:41;;;;;;;0.20;0.20;;;;;;;;;;5034380;28;20037;-84
2023/08/10 03:14:06;;;;;;;0.10;0.10;;;;;;;;;;5035325;28;20448;-83
2023/08/10 03:16:31;;;;;;;0.20;0.20;;;;;;;;;;5035628;28;20407;-84
2023/08/10 03:18:57;;;;;;;0.20;0.20;;;;;;;;;;5051034;28;20045;-84
2023/08/10 03:21:22;;;;;;;0.10;0.10;;;;;;;;;;5024351;28;20053;-84
2023/08/10 03:23:47;;;;;;;0.20;0.20;;;;;;;;;;5038163;28;20303;-85
2023/08/10 03:26:12;;;;;;;0.10;0.10;;;;;;;;;;5040432;28;20428;-82
2023/08/10 03:28:38;;;;;;;0.20;0.20;;;;;;;;;;5036519;28;20041;-84
2023/08/10 03:31:03;;;;;;;0.20;0.20;;;;;;;;;;5036682;28;20030;-83
2023/08/10 03:33:28;;;;;;;0.20;0.20;;;;;;;;;;5038049;28;20105;-83
2023/08/10 03:35:54;;;;;;;0.20;0.20;;;;;;;;;;5038789;28;20272;-84
2023/08/10 03:38:19;;;;;;;0.20;0.20;;;;;;;;;;5036497;28;20561;-83
2023/08/10 03:40:44;;;;;;;0.20;0.20;;;;;;;;;;5037160;28;20637;-83
2023/08/10 03:43:09;;;;;;;0.20;0.20;;;;;;;;;;5031574;28;20033;-83
2023/08/10 03:45:34;;;;;;;0.20;0.20;;;;;;;;;;5036143;28;20126;-85
2023/08/10 03:47:59;;;;;;;0.20;0.20;;;;;;;;;;5043058;28;20037;-83
2023/08/10 03:50:25;;;;;;;0.17;0.17;;;;;;;;;;5039841;28;20384;-82
2023/08/10 03:52:50;;;;;;;0.20;0.20;;;;;;;;;;5033946;28;20299;-83
2023/08/10 03:55:15;;;;;;;0.10;0.10;;;;;;;;;;5035795;28;20029;-84
2023/08/10 03:57:41;;;;;;;0.20;0.20;;;;;;;;;;5035401;28;20573;-84
2023/08/10 04:00:07;;;;;;;0.20;0.20;;;;;;;;;;5035346;28;20021;-84
2023/08/10 04:02:32;;;;;;;0.20;0.20;;;;;;;;;;5034547;28;20450;-84
2023/08/10 04:04:58;;;;;;;0.20;0.20;;;;;;;;;;5036220;28;20026;-83
2023/08/10 04:07:23;;;;;;;0.20;0.20;;;;;;;;;;5035036;28;20048;-83
2023/08/10 04:09:48;;;;;;;0.20;0.20;;;;;;;;;;5036416;28;20033;-83
2023/08/10 04:12:14;;;;;;;0.20;0.20;;;;;;;;;;5034080;28;20033;-83
2023/08/10 04:14:39;;;;;;;0.20;0.20;;;;;;;;;;5036439;28;20037;-83
2023/08/10 04:17:05;;;;;;;0.20;0.20;;;;;;;;;;5035046;28;20044;-82
2023/08/10 04:19:30;;;;;;;0.20;0.20;;;;;;;;;;5035734;28;20092;-83
2023/08/10 04:21:56;;;;;;;0.20;0.20;;;;;;;;;;5035257;28;20049;-83
2023/08/10 04:24:21;;;;;;;0.20;0.20;;;;;;;;;;5029297;28;20049;-84
2023/08/10 04:26:46;;;;;;;0.20;0.20;;;;;;;;;;5030870;28;20518;-85
2023/08/10 04:29:11;;;;;;;0.20;0.20;;;;;;;;;;5029057;28;20030;-85
2023/08/10 04:31:37;;;;;;;0.20;0.20;;;;;;;13.32;nan;100811.56;5030255;28;20048;-85
2023/08/10 04:34:02;;;;;;;0.20;0.20;;;;;;;;;;5032493;28;20499;-85
2023/08/10 04:36:27;;;;;;;0.20;0.20;;;;;;;;;;5029819;28;20042;-85
2023/08/10 04:38:52;;;;;;;0.20;0.20;;;;;;;23.04;100.00;65951.03;5031341;28;20482;-85
2023/08/10 04:41:17;;;;;;;0.20;0.20;;;;;;;;;;5030379;28;20288;-84
2023/08/10 04:43:43;;;;;;;0.20;0.20;;;;;;;;;;5031541;28;20045;-84
2023/08/10 04:46:08;;;;;;;0.20;0.20;;;;;;;;;;5030196;28;20510;-85
2023/08/10 04:48:34;;;;;;;0.20;0.20;;;;;;;;;;5031975;28;20276;-86
2023/08/10 04:50:59;;;;;;;0.10;0.10;;;;;;;;;;5040264;28;20034;-84
2023/08/10 04:53:24;;;;;;;;;;;;;;;;;;5031890;28;20045;-85
2023/08/10 04:55:50;;;;;;;0.20;0.20;;;;;;;;;;5031208;28;20389;-85
2023/08/10 04:58:16;;;;;;;0.20;0.20;;;;;;;;;;5030898;28;20037;-85
2023/08/10 05:00:41;;;;;;;0.20;0.20;;;;;;;;;;5030180;28;20454;-84
2023/08/10 05:03:06;;;;;;;0.10;0.10;;;;;;;;;;5028929;28;20437;-85
2023/08/10 05:05:32;;;;;;;0.20;0.20;;;;;;;;;;5031159;28;20041;-84
2023/08/10 05:07:57;;;;;;;0.10;0.10;;;;;;;;;;5035903;28;20095;-84
2023/08/10 05:10:22;;;;;;;0.20;0.20;;;;;;;;;;5030420;28;20037;-85
2023/08/10 05:12:48;;;;;;;0.20;0.20;;;;;;;;;;5028264;28;20295;-84
2023/08/10 05:15:13;;;;;;;0.20;0.20;;;;;;;;;;5030771;28;20163;-85
2023/08/10 05:17:39;;;;;;;0.10;0.10;;;;;;;;;;5029797;28;20924;-84
2023/08/10 05:20:10;;;;;;;0.10;0.10;;;;;;;;;;5028806;28;20045;-84
2023/08/10 05:22:36;;;;;;;0.10;0.10;;;;;;;14.55;nan;100947.28;5031569;28;20041;-85
2023/08/10 05:25:01;;;;;;;0.20;0.20;;;;;;;;;;5047564;28;20525;-84
2023/08/10 05:27:26;;;;;;;0.20;0.20;;;;;;;;;;5031220;28;20112;-83
2023/08/10 05:29:51;;;;;;;0.20;0.20;;;;;;;;;;5028787;28;20384;-83
2023/08/10 05:32:16;;;;;;;0.10;0.10;;;;;;;;;;5028301;28;20037;-83
2023/08/10 05:34:42;;;;;;;;;;;;;;;;;;5029593;28;20022;-84
2023/08/10 05:37:07;;;;;;;0.10;0.10;;;;;;;;;;5029393;28;20325;-84
2023/08/10 05:39:32;;;;;;;0.10;0.10;;;;;;;;;;5030274;28;20407;-84
2023/08/10 05:41:57;;;;;;;0.10;0.10;;;;;;;;;;5032157;28;20426;-83
2023/08/10 05:44:22;;;;;;;0.10;0.10;;;;;;;;;;5031423;28;20116;-83
2023/08/10 05:46:48;;;;;;;0.10;0.10;;;;;;;;;;5032422;28;20056;-84
2023/08/10 05:49:13;;;;;;;0.10;0.10;;;;;;;;;;5030208;28;20368;-85
2023/08/10 05:51:38;;;;;;;0.10;0.10;;;;;;;15.25;nan;100854.25;5029394;28;20048;-85
2023/08/10 05:54:04;;;;;;;0.20;0.20;;;;;;;;;;5031284;28;20097;-84
2023/08/10 05:56:30;;;;;;;0.10;0.10;;;;;;;;;;5032622;28;20035;-83
2023/08/10 05:58:55;;;;;;;0.10;0.10;;;;;;;;;;5028985;28;20034;-84
2023/08/10 06:01:21;;;;;;;0.10;0.10;;;;;;;;;;5060152;28;20410;-85
2023/08/10 06:03:46;;;;;;;0.20;0.20;;;;;;;;;;5030623;28;20052;-84
2023/08/10 06:06:12;;;;;;;0.10;0.10;;;;;;;15.64;nan;100805.34;5030275;28;20033;-85
2023/08/10 06:08:37;;;;;;;0.17;0.17;;;;;;;;;;5032434;28;20026;-84
2023/08/10 06:11:05;;;;;;;0.20;0.20;;;;;;;;;;5033302;28;20511;-85
2023/08/10 06:13:31;;;;;;;0.20;0.20;;;;;;;;;;5029980;28;20342;-85
2023/08/10 06:15:56;;;;;;;0.20;0.20;;;;;;;;;;5026420;28;20030;-84
2023/08/10 06:18:21;;;;;;;0.20;0.20;;;;;;;;;;5027371;28;20503;-84
2023/08/10 06:20:47;;;;;;;0.10;0.10;;;;;;;;;;5028920;28;20427;-85
2023/08/10 06:23:12;;;;;;;0.10;0.10;;;;;;;;;;5027965;28;20411;-84
2023/08/10 06:25:37;;;;;;;;;;;;;;;16.90;nan;100832.34;5030609;28;20497;-83
2023/08/10 06:28:02;;;;;;;0.10;0.10;;;;;;;;;;5029707;28;19940;-84
2023/08/10 06:30:28;;;;;;;0.10;0.10;;;;;;;;;;5027940;28;20272;-85
2023/08/10 06:32:53;;;;;;;0.10;0.10;;;;;;;;;;5047514;28;20033;-84
2023/08/10 06:35:19;;;;;;;0.10;0.10;;;;;;;17.30;nan;100832.84;5041026;28;20034;-86
2023/08/10 06:37:44;;;;;;;0.10;0.10;;;;;;;17.31;nan;100839.88;5021607;28;20033;-84
2023/08/10 06:40:10;;;;;;;0.10;0.10;;;;;;;;;;5032998;28;20041;-84
2023/08/10 06:42:37;;;;;;;0.10;0.10;;;;;;;17.45;nan;100840.81;5027276;28;20045;-83
2023/08/10 06:45:03;;;;;;;0.10;0.10;;;;;;;;;;5028433;28;20487;-84
2023/08/10 06:47:29;;;;;;;0.10;0.10;;;;;;;;;;5028330;28;20041;-85
2023/08/10 06:49:54;;;;;;;0.10;0.10;;;;;;;;;;5030146;28;20436;-84
2023/08/10 06:52:19;;;;;;;0.10;0.10;;;;;;;18.10;nan;100962.13;5030343;28;20427;-84
2023/08/10 06:54:44;;;;;;;;;;;;;;;18.25;nan;100863.81;5032409;28;20033;-84
2023/08/10 06:57:09;;;;;;;;;;;;;;;18.35;nan;100853.63;5032448;28;19913;-83
2023/08/10 06:59:34;;;;;;;;;;;;;;;18.53;nan;100854.97;5024261;28;19960;-85
2023/08/10 07:02:01;;;;;;;;;;;;;;;18.56;nan;100855.41;5033999;28;19917;-84
2023/08/10 07:04:26;;;;;;;;;;;;;;;18.61;nan;100868.19;5032775;28;19917;-84
2023/08/10 07:06:52;;;;;;;;;;;;;;;18.69;nan;100870.75;5035097;28;19920;-84
2023/08/10 07:09:18;;;;;;;;;;;;;;;18.75;nan;100869.94;5033222;28;19921;-84
2023/08/10 07:11:43;;;;;;;;;;;;;;;18.92;nan;100869.66;5033425;28;19916;-84
2023/08/10 07:14:08;;;;;;;;;;;;;;;19.23;nan;100872.69;5029210;28;19917;-84
2023/08/10 07:16:34;;;;;;;;;;;;;;;19.79;nan;100877.00;5029398;28;20374;-84
2023/08/10 07:18:59;;;;;;;;;;;;;;;20.65;nan;100897.69;5030992;28;19985;-84
2023/08/10 07:21:24;;;;;;;;;;;;;;;21.43;nan;100896.88;5034141;28;20343;-85
2023/08/10 07:23:49;;;;;;;;;;;;;;;;;;5031037;28;19913;-84
2023/08/10 07:26:14;;;;;;;;;;;;;;;21.47;nan;100886.50;5032527;28;19963;-84
2023/08/10 07:28:39;;;;;;;;;;;;;;;21.75;nan;100896.88;5033041;28;19917;-84
2023/08/10 07:31:05;;;;;;;;;;;;;;;22.40;nan;100899.34;5031667;28;19921;-84
2023/08/10 07:33:30;;;;;;;;;;;;;;;23.02;nan;100908.25;5032057;28;20116;-84
2023/08/10 07:35:55;;;;;;;;;;;;;;;23.37;nan;100920.34;5034201;28;19920;-84
2023/08/10 07:38:21;;;;;;;;;;;;;;;23.64;nan;100920.78;5039341;28;19913;-84
2023/08/10 07:40:47;;;;;;;;;;;;;;;23.95;nan;100917.91;5041973;28;19931;-84
2023/08/10 07:43:12;;;;;;;;;;;;;;;24.35;nan;100930.75;5033140;28;20293;-83
2023/08/10 07:45:37;;;;;;;;;;;;;;;24.94;nan;100940.78;5033685;28;20337;-84
2023/08/10 07:48:03;;;;;;;;;;;;;;;25.47;nan;100934.34;5029397;28;19920;-84
2023/08/10 07:50:28;;;;;;;;;;;;;;;25.55;nan;100938.53;5032748;28;19917;-85
2023/08/10 07:52:53;;;;;;;;;;;;;;;25.90;nan;100937.59;5030020;28;19923;-85
2023/08/10 07:55:18;;;;;;;;;;;;;;;26.03;nan;100940.03;5032661;28;19940;-84
2023/08/10 07:57:43;;;;;;;;;;;;;;;26.22;nan;100937.91;5035452;28;19971;-84
2023/08/10 08:00:10;;;;;;;;;;;;;;;26.54;nan;100948.19;5036496;28;20475;-84
2023/08/10 08:02:35;;;;;;;;;;;;;;;27.00;nan;100940.69;5068160;28;20405;-83
2023/08/10 08:05:00;;;;;;;;;;;;;;;27.43;nan;100939.09;5033608;28;19949;-83
2023/08/10 08:07:26;;;;;;;;;;;;;;;27.56;nan;100932.47;5035612;28;20003;-83
2023/08/10 08:09:51;;;;;;;;;;;;;;;27.94;nan;100935.03;5037952;28;19913;-84
2023/08/10 08:12:17;;;;;;;;;;;;;;;28.26;nan;100927.97;5033208;28;19913;-83
2023/08/10 08:14:43;;;;;;;;;;;;;;;28.65;nan;100934.00;5037451;28;19994;-83
2023/08/10 08:17:08;;;;;;;;;;;;;;;29.16;nan;100942.44;5041760;28;20389;-83
2023/08/10 08:19:34;;;;;;;;;;;;;;;29.31;nan;100936.22;5033313;28;19917;-84
2023/08/10 08:21:59;;;;;;;;;;;;;;;29.00;nan;100938.78;5036231;28;19913;-83
2023/08/10 08:24:24;;;;;;;;;;;;;;;28.64;nan;100932.34;5047266;28;19916;-84
2023/08/10 08:26:50;;;;;;;;;;;;;;;28.93;nan;100930.06;5056462;28;20289;-84
2023/08/10 08:29:15;;;;;;;;;;;;;;;29.26;nan;100932.69;5047283;28;19974;-85
2023/08/10 08:31:40;;;;;;;;;;;;;;;29.14;nan;100936.44;5034940;28;19945;-85
2023/08/10 08:34:05;;;;;;;;;;;;;;;29.08;nan;100931.25;5029036;28;19923;-86
2023/08/10 08:36:31;;;;;;;;;;;;;;;29.12;nan;100924.19;5046505;28;19917;-85
2023/08/10 08:38:56;;;;;;;;;;;;;;;29.12;nan;100911.38;5040999;28;19920;-84
2023/08/10 08:41:22;;;;;;;;;;;;;;;29.78;nan;100924.41;5033061;28;19913;-84
2023/08/10 08:43:48;;;;;;;;;;;;;;;30.14;nan;100927.16;5040402;28;19928;-86
2023/08/10 08:46:16;;;;;;;;;;;;;;;30.54;nan;100925.50;5031241;28;20502;-85
2023/08/10 08:48:41;;;;;;;;;;;;;;;31.00;nan;100939.06;5034257;28;19940;-84
2023/08/10 08:51:06;;;;;;;;;;;;;;;31.37;nan;100937.81;5029476;28;19917;-85
2023/08/10 08:53:33;;;;;;;;;;;;;;;31.58;nan;100933.06;5039512;28;19959;-85
2023/08/10 08:55:58;;;;;;;;;;;;;;;31.98;nan;100942.13;5034198;28;20377;-85
2023/08/10 08:58:23;;;;;;;;;;;;;;;32.09;nan;100931.94;5021961;28;19956;-86
2023/08/10 09:00:49;;;;;;;;;;;;;;;32.15;nan;100922.56;5035353;28;19917;-86
2023/08/10 09:03:16;;;;;;;;;;;;;;;32.43;nan;100926.41;5053669;28;20359;-85
2023/08/10 09:05:41;;;;;;;;;;;;;;;32.50;nan;100931.56;5041698;28;19921;-85
2023/08/10 09:08:07;;;;;;;;;;;;;;;32.38;nan;100926.47;5032227;28;20063;-85
2023/08/10 09:10:32;;;;;;;;;;;;;;;32.37;nan;100922.91;5033819;28;19940;-86
2023/08/10 09:13:08;;;;;;;;;;;;;;;32.85;nan;100922.16;5033054;28;19929;-86
2023/08/10 09:15:33;;;;;;;;;;;;;;;32.70;nan;100914.91;5032122;28;19917;-84
2023/08/10 09:17:59;;;;;;;;;;;;;;;32.56;nan;100916.72;5027602;28;19972;-85
2023/08/10 09:20:28;;;;;;;;;;;;;;;32.92;nan;100921.81;5028447;28;19971;-85
2023/08/10 09:22:55;;;;;;;;;;;;;;;32.98;nan;100915.16;5030656;28;20019;-85
2023/08/10 09:25:20;;;;;;;;;;;;;;;32.98;nan;100915.16;5029787;28;19920;-85
2023/08/10 09:27:47;;;;;;;;;;;;;;;33.26;nan;100915.38;5030579;28;19940;-84
2023/08/10 09:30:12;;;;;;;;;;;;;;;33.55;nan;100920.72;5028330;28;19963;-85
2023/08/10 09:32:38;;;;;;;;;;;;;;;33.87;nan;100909.00;5026584;28;20374;-85
2023/08/10 09:35:05;;;;;;;;;;;;;;;34.53;nan;100917.22;5031349;28;20283;-85
2023/08/10 09:37:31;;;;;;;;;;;;;;;34.32;nan;100905.78;5028318;28;19921;-85
2023/08/10 09:40:07;;;;;;;;;;;;;;;34.41;nan;100903.97;5030873;28;19971;-85
2023/08/10 09:42:33;;;;;;;;;;;;;;;34.79;nan;100901.91;5023139;28;20371;-86
2023/08/10 09:45:06;;;;;;;;;;;;;;;35.45;nan;100898.88;5023026;28;19927;-84
2023/08/10 09:47:33;;;;;;;;;;;;;;;35.64;nan;100901.47;5029500;28;19967;-85
2023/08/10 09:50:05;;;;;;;;;;;;;;;36.09;nan;100899.53;5028842;28;20389;-85
2023/08/10 09:52:30;;;;;;;;;;;;;;;36.64;nan;100898.38;5012092;28;19918;-84
2023/08/10 09:54:56;;;;;;;;;;;;;;;37.02;nan;100892.31;5018698;28;19917;-85
2023/08/10 09:57:22;;;;;;;;;;;;;;;37.33;nan;100896.88;5017069;28;20291;-85
2023/08/10 09:59:48;;;;;;;;;;;;;;;36.93;nan;100899.75;5019524;28;19917;-85
2023/08/10 10:02:14;;;;;;;;;;;;;;;36.54;nan;100888.44;5024053;28;20394;-85
2023/08/10 10:04:39;;;;;;;;;;;;;;;36.86;nan;100893.91;5022920;28;19917;-87
2023/08/10 10:07:05;;;;;;;;;;;;;;;36.64;nan;100890.09;5020197;28;20390;-85
2023/08/10 10:09:33;;;;;;;;;;;;;;;37.00;nan;100894.56;5012743;28;19932;-85
2023/08/10 10:11:59;;;;;;;;;;;;;;;37.05;nan;100891.66;5019227;28;20294;-85
2023/08/10 10:14:25;;;;;;;;;;;;;;;36.91;nan;100891.78;5011192;28;19940;-85
2023/08/10 10:16:51;;;;;;;;;;;;;;;36.96;nan;100902.66;5051547;28;19913;-86
2023/08/10 10:19:16;;;;;;;;;;;;;;;37.12;nan;100897.53;5028107;28;19948;-86
2023/08/10 10:21:42;;;;;;;;;;;;;;;37.43;nan;100879.22;5029794;28;19920;-86
2023/08/10 10:24:09;;;;;;;;;;;;;;;37.45;nan;100885.22;5030980;28;19924;-86
2023/08/10 10:26:34;;;;;;;;;;;;;;;36.70;nan;100879.75;5028565;28;19924;-85
2023/08/10 10:29:12;;;;;;;;;;;;;;;36.60;nan;100869.81;5033278;28;19924;-86
2023/08/10 10:31:38;;;;;;;;;;;;;;;36.08;nan;100875.03;5033148;28;20291;-85
2023/08/10 10:34:04;;;;;;;;;;;;;;;36.29;nan;100873.41;5035832;28;19913;-85
2023/08/10 10:36:31;;;;;;;;;;;;;;;36.77;nan;100869.06;5033990;28;19996;-85
2023/08/10 10:39:11;;;;;;;;;;;;;;;37.16;nan;100870.13;5033039;28;19917;-85
2023/08/10 10:41:40;;;;;;;;;;;;;;;37.61;nan;100865.13;5031728;28;19924;-85
2023/08/10 10:44:05;;;;;;;;;;;;;;;38.15;nan;100872.97;5032929;28;19917;-86
2023/08/10 10:46:31;;;;;;;;;;;;;;;38.61;nan;100868.56;5034194;28;19921;-86
2023/08/10 10:48:56;;;;;;;;;;;;;;;39.01;nan;100857.13;5034051;28;20362;-86
2023/08/10 10:51:22;;;;;;;;;;;;;;;39.37;nan;100854.91;5033027;28;19919;-85
2023/08/10 10:53:47;;;;;;;;;;;;;;;39.62;nan;100862.19;5035725;28;20282;-86
2023/08/10 10:56:13;;;;;;;;;;;;;;;39.55;nan;100861.13;5033550;28;19940;-85
2023/08/10 10:58:39;;;;;;;;;;;;;;;39.36;nan;100854.13;5024065;28;20000;-85
2023/08/10 11:01:05;;;;;;;;;;;;;;;39.14;nan;100852.50;5033359;28;19935;-87
2023/08/10 11:03:30;;;;;;;;;;;;;;;39.39;nan;100861.72;5032421;28;19920;-86
2023/08/10 11:05:56;;;;;;;;;;;;;;;39.74;nan;100852.28;5033717;28;19917;-86
2023/08/10 11:08:22;;;;;;;;;;;;;;;40.12;nan;100846.53;5031901;28;19928;-86
2023/08/10 11:10:50;;;;;;;;;;;;;;;39.60;nan;100847.88;5030274;28;19916;-86
2023/08/10 11:13:16;;;;;;;;;;;;;;;39.37;nan;100847.44;5032453;28;20310;-86
2023/08/10 11:15:45;;;;;;;;;;;;;;;39.64;nan;100845.22;5035146;28;19992;-86
2023/08/10 11:18:11;;;;;;;;;;;;;;;39.66;nan;100834.59;5032374;28;19917;-86
2023/08/10 11:20:41;;;;;;;;;;;;;;;39.41;nan;100820.69;5033645;28;19913;-86
2023/08/10 11:23:06;;;;;;;;;;;;;;;39.59;nan;100823.28;5032259;28;19917;-86
2023/08/10 11:25:32;;;;;;;;;;;;;;;39.61;nan;100821.78;5032681;28;20321;-87
2023/08/10 11:27:57;;;;;;;;;;;;;;;39.57;nan;100825.59;5032736;28;19912;-86
2023/08/10 11:30:23;;;;;;;;;;;;;;;39.84;nan;100818.66;5031148;28;19912;-86
2023/08/10 11:32:49;;;;;;;;;;;;;;;39.78;nan;100820.78;5031756;28;19916;-85
2023/08/10 11:35:16;;;;;;;;;;;;;;;39.66;nan;100813.25;5030856;28;19917;-85
2023/08/10 11:37:42;;;;;;;;;;;;;;;39.65;nan;100816.41;5029532;28;19959;-85
2023/08/10 11:40:10;;;;;;;;;;;;;;;39.98;nan;100823.88;5030256;28;20342;-85
2023/08/10 11:42:36;;;;;;;;;;;;;;;40.16;nan;100821.69;5031083;28;19920;-85
2023/08/10 11:45:05;;;;;;;;;;;;;;;40.51;nan;100827.59;5032372;28;19917;-85
2023/08/10 11:47:50;;;;;;;;;;;;;;;40.64;nan;100822.84;5065862;28;19920;-86
2023/08/10 11:50:16;;;;;;;;;;;;;;;40.90;nan;100819.69;5030294;28;20051;-86
2023/08/10 11:52:41;;;;;;;;;;;;;;;40.88;nan;100822.84;5030476;28;20012;-86
2023/08/10 11:55:14;;;;;;;;;;;;;;;40.89;nan;100830.00;5033710;28;20631;-85
2023/08/10 11:57:46;;;;;;;;;;;;;;;40.90;nan;100826.03;5032560;28;19959;-85
2023/08/10 12:00:25;;;;;;;;;;;;;;;40.82;nan;100820.66;5022038;28;20418;-86
2023/08/10 12:03:04;;;;;;;;;;;;;;;39.95;nan;100813.47;5031421;28;19924;-85
2023/08/10 12:05:36;;;;;;;;;;;;;;;40.06;nan;100817.41;5029127;28;19925;-85
2023/08/10 12:08:02;;;;;;;;;;;;;;;40.12;nan;100811.31;5031718;28;20386;-86
2023/08/10 12:10:41;;;;;;;;;;;;;;;39.70;nan;100818.94;5065817;28;19917;-86
2023/08/10 12:13:08;;;;;;;;;;;;;;;38.37;nan;100819.41;5037436;28;19916;-87
2023/08/10 12:15:37;;;;;;;;;;;;;;;37.19;nan;100819.84;5034869;28;19913;-86
2023/08/10 12:18:05;;;;;;;;;;;;;;;36.71;nan;100816.06;5034724;28;19956;-87
2023/08/10 12:20:31;;;;;;;;;;;;;;;36.08;nan;100815.28;5031472;28;20286;-87
2023/08/10 12:22:56;;;;;;;;;;;;;;;35.84;nan;100814.84;5035095;28;19917;-87
2023/08/10 12:25:22;;;;;;;;;;;;;;;34.84;nan;100808.38;5035499;28;19964;-87
2023/08/10 12:27:48;;;;;;;;;;;;;;;34.27;nan;100818.84;5035228;28;19913;-87
2023/08/10 12:30:14;;;;;;;;;;;;;;;33.66;nan;100820.75;5028947;28;19913;-87
2023/08/10 12:32:40;;;;;;;;;;;;;;;33.26;nan;100811.22;5032563;28;19947;-87
2023/08/10 12:35:08;;;;;;;;;;;;;;;32.88;nan;100822.97;5034364;28;19917;-87
2023/08/10 12:37:36;;;;;;;;;;;;;;;32.00;nan;100818.75;5035744;28;20003;-87
2023/08/10 12:40:02;;;;;;;;;;;;;;;31.34;nan;100801.72;5031774;28;19913;-88
2023/08/10 12:42:28;;;;;;;;;;;;;;;31.49;nan;100809.84;5027315;28;19913;-87
2023/08/10 12:44:53;;;;;;;;;;;;;;;30.78;nan;100804.78;5028427;28;19989;-86
2023/08/10 12:47:18;;;;;;;;;;;;;;;30.52;nan;100801.34;5054249;28;20289;-86
2023/08/10 12:49:44;;;;;;;;;;;;;;;30.38;nan;100796.47;5032961;28;19912;-87
2023/08/10 12:52:09;;;;;;;;;;;;;;;30.20;nan;100783.38;5029848;28;19913;-87
2023/08/10 12:54:36;;;;;;;;;;;;;;;29.69;nan;100788.94;5032364;28;20358;-87
2023/08/10 12:57:01;;;;;;;;;;;;;;;29.72;nan;100791.09;5032140;28;19920;-86
2023/08/10 12:59:26;;;;;;;;;;;;;;;29.57;nan;100791.91;5026788;28;19917;-86
2023/08/10 13:01:52;;;;;;;;;;;;;;;29.39;nan;100791.34;5032370;28;19913;-86
2023/08/10 13:04:17;;;;;;;;;;;;;;;29.21;nan;100794.59;5032932;28;19913;-86
2023/08/10 13:06:43;;;;;;;;;;;;;;;29.25;nan;100795.69;5032201;28;19917;-85
2023/08/10 13:09:09;;;;;;;;;;;;;;;28.99;nan;100792.88;5033352;28;20268;-87
2023/08/10 13:11:39;;;;;;;;;;;;;;;28.86;nan;100792.56;5032130;28;20288;-86
2023/08/10 13:14:05;;;;;;;;;;;;;;;28.38;nan;100789.88;5025406;28;20379;-86
2023/08/10 13:16:30;;;;;;;;;;;;;;;28.30;nan;100806.72;5032809;28;20341;-85
2023/08/10 13:18:56;;;;;;;;;;;;;;;28.31;nan;100808.34;5032586;28;19964;-87
2023/08/10 13:21:22;;;;;;;;;;;;;;;28.29;nan;100794.19;5033681;28;19959;-89
2023/08/10 13:23:48;;;;;;;;;;;;;;;28.15;nan;100778.34;5036463;28;19939;-86
2023/08/10 13:26:13;;;;;;;;;;;;;;;28.18;nan;100796.03;5031166;28;20338;-87
2023/08/10 13:28:39;;;;;;;;;;;;;;;28.13;nan;100796.00;5030642;28;19991;-86
2023/08/10 13:31:06;;;;;;;;;;;;;;;27.92;nan;100795.84;5026519;28;19973;-86
2023/08/10 13:33:32;;;;;;;;;;;;;;;27.84;nan;100798.22;5029844;28;19917;-86
2023/08/10 13:36:02;;;;;;;;;;;;;;;27.70;nan;100787.78;5031336;28;20063;-86
2023/08/10 13:38:27;;;;;;;;;;;;;;;27.64;nan;100775.22;5023030;28;19921;-88